createdAt,value
2019-05-02T00:02:24.047Z,28.80
2019-05-02T00:04:55.917Z,34.67
2019-05-02T00:07:27.793Z,37.55
2019-05-02T00:09:59.370Z,33.80
2019-05-02T00:12:31.363Z,38.30
2019-05-02T00:17:35.331Z,27.45
2019-05-02T00:20:08.889Z,17.85
2019-05-02T00:22:40.692Z,22.02
2019-05-02T00:25:16.025Z,22.22
2019-05-02T00:27:44.872Z,24.18
2019-05-02T00:30:18.246Z,26.60
2019-05-02T00:32:53.098Z,25.10
2019-05-02T00:35:22.889Z,23.67
2019-05-02T00:37:57.343Z,27.62
2019-05-02T00:40:27.804Z,21.68
2019-05-02T00:42:59.609Z,21.95
2019-05-02T00:45:31.115Z,22.85
2019-05-02T00:48:03.993Z,22.20
2019-05-02T00:50:36.773Z,20.20
2019-05-02T00:53:12.269Z,22.55
2019-05-02T00:55:41.741Z,26.60
2019-05-02T00:58:13.200Z,16.95
2019-05-02T01:00:48.570Z,19.48
2019-05-02T01:03:18.698Z,17.37
2019-05-02T01:05:50.155Z,20.40
2019-05-02T01:10:52.178Z,24.37
2019-05-02T01:13:23.681Z,23.62
2019-05-02T01:15:54.554Z,15.83
2019-05-02T01:18:25.841Z,17.20
2019-05-02T01:20:58.077Z,18.75
2019-05-02T01:23:29.601Z,16.00
2019-05-02T01:26:00.651Z,16.60
2019-05-02T01:28:33.099Z,14.63
2019-05-02T01:31:05.474Z,16.95
2019-05-02T01:33:41.691Z,13.78
2019-05-02T01:36:12.282Z,15.08
2019-05-02T01:38:45.178Z,14.30
2019-05-02T01:41:16.898Z,15.85
2019-05-02T01:43:48.664Z,12.98
2019-05-02T01:46:22.245Z,16.50
2019-05-02T01:48:53.092Z,15.30
2019-05-02T01:51:24.890Z,17.02
2019-05-02T01:53:56.186Z,13.00
2019-05-02T01:58:58.960Z,17.67
2019-05-02T02:01:30.799Z,16.97
2019-05-02T02:04:02.493Z,17.25
2019-05-02T02:06:34.322Z,18.37
2019-05-02T02:09:08.498Z,20.52
2019-05-02T02:11:39.417Z,20.23
2019-05-02T02:14:13.074Z,22.73
2019-05-02T02:16:44.013Z,17.17
2019-05-02T02:19:16.854Z,15.35
2019-05-02T02:21:49.259Z,20.52
2019-05-02T02:24:25.097Z,15.40
2019-05-02T02:26:54.524Z,12.20
2019-05-02T02:29:25.600Z,15.20
2019-05-02T02:31:56.406Z,13.85
2019-05-02T02:34:29.762Z,14.65
2019-05-02T02:37:05.232Z,15.72
2019-05-02T02:39:32.309Z,19.87
2019-05-02T02:44:39.898Z,16.90
2019-05-02T02:47:11.926Z,16.70
2019-05-02T02:49:40.925Z,17.90
2019-05-02T02:52:14.289Z,17.35
2019-05-02T02:54:45.942Z,13.10
2019-05-02T02:57:26.098Z,13.45
2019-05-02T02:59:50.247Z,16.93
2019-05-02T03:04:51.885Z,17.90
2019-05-02T03:07:26.229Z,14.00
2019-05-02T03:09:59.429Z,14.03
2019-05-02T03:12:36.114Z,11.88
2019-05-02T03:15:04.242Z,12.58
2019-05-02T03:17:36.155Z,15.95
2019-05-02T03:20:09.451Z,17.55
2019-05-02T03:22:43.308Z,15.45
2019-05-02T03:25:18.405Z,13.75
2019-05-02T03:27:46.881Z,13.93
2019-05-02T03:30:32.888Z,15.13
2019-05-02T03:33:06.438Z,13.70
2019-05-02T03:35:39.631Z,16.65
2019-05-02T03:37:56.772Z,15.58
2019-05-02T03:45:32.104Z,13.48
2019-05-02T03:48:03.695Z,12.73
2019-05-02T03:50:36.010Z,9.68
2019-05-02T03:53:07.510Z,15.48
2019-05-02T03:55:39.230Z,12.70
2019-05-02T03:58:14.059Z,20.62
2019-05-02T04:00:43.445Z,13.10
2019-05-02T04:03:15.597Z,14.10
2019-05-02T04:05:47.193Z,14.15
2019-05-02T04:08:20.760Z,14.40
2019-05-02T04:10:59.536Z,9.65
2019-05-02T04:13:29.989Z,12.75
2019-05-02T04:16:01.149Z,13.43
2019-05-02T04:18:32.580Z,13.90
2019-05-02T04:23:34.448Z,13.68
2019-05-02T04:26:06.670Z,12.78
2019-05-02T04:28:38.852Z,14.07
2019-05-02T04:31:10.233Z,14.15
2019-05-02T04:36:15.351Z,15.63
2019-05-02T04:38:51.069Z,13.18
2019-05-02T04:41:28.262Z,13.45
2019-05-02T04:43:57.625Z,14.58
2019-05-02T04:46:28.139Z,12.00
2019-05-02T04:48:58.433Z,10.15
2019-05-02T04:51:31.723Z,10.40
2019-05-02T04:54:01.660Z,11.05
2019-05-02T04:56:33.102Z,13.90
2019-05-02T04:59:16.618Z,12.18
2019-05-02T05:01:43.450Z,9.63
2019-05-02T05:04:09.747Z,12.75
2019-05-02T05:06:52.847Z,11.85
2019-05-02T05:09:15.035Z,12.47
2019-05-02T05:11:48.209Z,11.93
2019-05-02T05:14:20.057Z,9.95
2019-05-02T05:16:55.502Z,11.50
2019-05-02T05:19:30.967Z,9.33
2019-05-02T05:22:04.527Z,10.48
2019-05-02T05:24:32.818Z,11.03
2019-05-02T05:27:02.972Z,8.55
2019-05-02T05:29:34.699Z,12.58
2019-05-02T05:32:09.916Z,12.28
2019-05-02T05:34:39.424Z,13.30
2019-05-02T05:37:13.425Z,18.90
2019-05-02T05:39:48.780Z,10.45
2019-05-02T05:42:17.808Z,11.53
2019-05-02T05:44:49.481Z,10.98
2019-05-02T05:47:21.427Z,9.50
2019-05-02T05:49:57.599Z,9.10
2019-05-02T05:52:27.150Z,10.28
2019-05-02T05:54:58.749Z,10.80
2019-05-02T05:57:30.024Z,9.85
2019-05-02T06:00:03.820Z,8.38
2019-05-02T06:02:50.070Z,9.78
2019-05-02T06:05:08.533Z,8.78
2019-05-02T06:07:43.949Z,13.15
2019-05-02T06:10:13.899Z,11.65
2019-05-02T06:12:45.890Z,10.25
2019-05-02T06:15:17.620Z,8.58
2019-05-02T06:17:49.410Z,16.60
2019-05-02T06:20:21.142Z,9.43
2019-05-02T06:22:54.948Z,10.93
2019-05-02T06:25:34.067Z,11.05
2019-05-02T06:28:00.218Z,9.10
2019-05-02T06:30:32.372Z,11.80
2019-05-02T06:33:03.286Z,13.90
2019-05-02T06:35:35.106Z,9.10
2019-05-02T06:38:06.861Z,11.43
2019-05-02T06:40:39.320Z,9.65
2019-05-02T06:43:13.068Z,10.93
2019-05-02T06:45:45.000Z,11.00
2019-05-02T06:48:17.650Z,9.05
2019-05-02T06:50:50.240Z,8.43
2019-05-02T06:53:21.564Z,8.85
2019-05-02T06:58:24.019Z,7.62
2019-05-02T07:00:58.969Z,11.40
2019-05-02T07:03:30.260Z,9.48
2019-05-02T07:06:02.661Z,9.78
2019-05-02T07:08:35.032Z,13.30
2019-05-02T07:11:08.029Z,11.63
2019-05-02T07:13:42.176Z,8.15
2019-05-02T07:16:16.193Z,11.73
2019-05-02T07:18:49.575Z,12.43
2019-05-02T07:21:23.496Z,11.60
2019-05-02T07:23:55.002Z,9.53
2019-05-02T07:26:27.194Z,9.98
2019-05-02T07:28:58.946Z,9.43
2019-05-02T07:31:30.818Z,8.23
2019-05-02T07:34:02.293Z,12.07
2019-05-02T07:36:36.395Z,10.08
2019-05-02T07:39:07.939Z,8.73
2019-05-02T07:41:39.903Z,7.92
2019-05-02T07:44:11.625Z,9.68
2019-05-02T07:46:51.532Z,10.25
2019-05-02T07:49:15.913Z,8.60
2019-05-02T07:51:47.462Z,10.40
2019-05-02T07:54:19.449Z,11.53
2019-05-02T07:56:53.423Z,8.13
2019-05-02T07:59:25.303Z,8.45
2019-05-02T08:01:57.037Z,7.53
2019-05-02T08:04:28.579Z,7.50
2019-05-02T08:06:59.899Z,7.55
2019-05-02T08:12:01.513Z,9.68
2019-05-02T08:14:34.479Z,11.15
2019-05-02T08:17:16.320Z,12.25
2019-05-02T08:19:41.925Z,7.92
2019-05-02T08:22:13.847Z,7.03
2019-05-02T08:24:45.751Z,7.42
2019-05-02T08:27:19.025Z,9.08
2019-05-02T08:29:51.323Z,10.45
2019-05-02T08:32:23.089Z,10.03
2019-05-02T08:34:54.336Z,10.75
2019-05-02T08:39:56.520Z,6.80
2019-05-02T08:42:32.630Z,7.83
2019-05-02T08:45:03.210Z,7.90
2019-05-02T08:47:34.970Z,10.25
2019-05-02T08:50:08.737Z,8.60
2019-05-02T08:52:42.187Z,6.10
2019-05-02T08:55:13.646Z,6.92
2019-05-02T08:57:45.251Z,6.08
2019-05-02T09:00:17.621Z,8.58
2019-05-02T09:02:48.984Z,7.33
2019-05-02T09:07:51.405Z,9.33
2019-05-02T09:10:23.127Z,10.82
2019-05-02T09:12:54.914Z,6.87
2019-05-02T09:15:26.688Z,7.60
2019-05-02T09:17:58.395Z,33.78
2019-05-02T09:20:31.561Z,27.02
2019-05-02T09:23:03.280Z,21.25
2019-05-02T09:25:35.023Z,9.68
2019-05-02T09:28:07.342Z,13.35
2019-05-02T09:30:38.303Z,9.15
2019-05-02T09:33:11.668Z,8.80
2019-05-02T09:35:42.383Z,8.93
2019-05-02T09:38:16.221Z,9.88
2019-05-02T09:40:47.252Z,8.95
2019-05-02T09:43:19.814Z,7.22
2019-05-02T09:45:51.999Z,7.40
2019-05-02T09:48:26.753Z,9.05
2019-05-02T09:50:58.138Z,7.33
2019-05-02T09:53:29.383Z,9.25
2019-05-02T09:56:02.130Z,9.13
2019-05-02T09:58:33.935Z,7.03
2019-05-02T10:01:06.657Z,9.35
2019-05-02T10:03:38.422Z,9.93
2019-05-02T10:06:13.972Z,8.63
2019-05-02T10:08:46.314Z,9.55
2019-05-02T10:11:16.901Z,8.93
2019-05-02T10:13:48.665Z,9.58
2019-05-02T10:16:23.528Z,7.45
2019-05-02T10:18:53.273Z,8.30
2019-05-02T10:21:25.050Z,7.87
2019-05-02T10:23:59.483Z,10.00
2019-05-02T10:26:30.158Z,10.15
2019-05-02T10:29:02.149Z,11.03
2019-05-02T10:31:37.602Z,8.25
2019-05-02T10:34:08.412Z,10.60
2019-05-02T10:36:43.223Z,8.90
2019-05-02T10:39:15.697Z,8.88
2019-05-02T10:41:46.173Z,10.05
2019-05-02T10:44:17.930Z,10.00
2019-05-02T10:46:52.335Z,11.63
2019-05-02T10:49:25.291Z,15.28
2019-05-02T10:51:56.429Z,14.83
2019-05-02T10:54:32.562Z,9.23
2019-05-02T10:57:02.305Z,10.45
2019-05-02T10:59:33.986Z,12.35
2019-05-02T11:02:06.596Z,10.53
2019-05-02T11:04:39.073Z,13.62
2019-05-02T11:07:11.946Z,12.95
2019-05-02T11:09:43.591Z,14.65
2019-05-02T11:12:21.125Z,16.55
2019-05-02T11:14:51.653Z,11.60
2019-05-02T11:17:24.728Z,12.13
2019-05-02T11:19:57.741Z,14.13
2019-05-02T11:22:29.375Z,9.88
2019-05-02T11:25:01.855Z,10.55
2019-05-02T11:27:33.759Z,11.57
2019-05-02T11:30:06.540Z,12.75
2019-05-02T11:32:37.588Z,14.15
2019-05-02T11:35:12.066Z,14.10
2019-05-02T11:37:42.910Z,18.62
2019-05-02T11:42:44.978Z,23.85
2019-05-02T11:47:46.861Z,15.85
2019-05-02T11:50:18.333Z,23.90
2019-05-02T11:52:49.779Z,19.02
2019-05-02T11:55:27.348Z,17.80
2019-05-02T11:57:54.930Z,20.02
2019-05-02T12:02:58.333Z,20.75
2019-05-02T12:05:35.688Z,22.02
2019-05-02T12:08:07.929Z,21.15
2019-05-02T12:10:39.576Z,18.12
2019-05-02T12:13:15.581Z,20.43
2019-05-02T12:15:44.467Z,25.02
2019-05-02T12:18:15.870Z,16.70
2019-05-02T12:20:47.395Z,25.02
2019-05-02T12:23:18.981Z,13.55
2019-05-02T12:25:51.998Z,15.95
2019-05-02T12:28:23.540Z,20.00
2019-05-02T12:30:55.388Z,16.52
2019-05-02T12:33:28.010Z,15.58
2019-05-02T12:35:59.585Z,26.57
2019-05-02T12:38:32.414Z,17.40
2019-05-02T12:41:04.155Z,22.40
2019-05-02T12:43:35.885Z,17.05
2019-05-02T12:48:37.979Z,19.12
2019-05-02T12:51:09.556Z,21.57
2019-05-02T12:53:41.793Z,21.90
2019-05-02T12:56:13.779Z,22.42
2019-05-02T13:01:15.446Z,18.17
2019-05-02T13:03:48.453Z,23.90
2019-05-02T13:06:21.840Z,25.20
2019-05-02T13:08:52.812Z,23.02
2019-05-02T13:11:27.696Z,34.90
2019-05-02T13:13:59.385Z,25.48
2019-05-02T13:16:33.346Z,27.48
2019-05-02T13:19:06.172Z,30.75
2019-05-02T13:21:42.146Z,22.73
2019-05-02T13:24:16.202Z,24.63
2019-05-02T13:26:45.630Z,29.42
2019-05-02T13:31:48.849Z,26.20
2019-05-02T13:34:22.107Z,32.17
2019-05-02T13:36:57.640Z,25.15
2019-05-02T13:39:28.379Z,25.43
2019-05-02T13:41:59.201Z,26.35
2019-05-02T13:44:32.678Z,23.60
2019-05-02T13:47:03.714Z,26.00
2019-05-02T13:49:34.825Z,24.33
2019-05-02T13:52:05.650Z,25.30
2019-05-02T13:54:37.051Z,20.25
2019-05-02T13:57:08.210Z,23.42
2019-05-02T13:59:41.463Z,22.22
2019-05-02T14:02:14.879Z,20.25
2019-05-02T14:04:46.340Z,23.22
2019-05-02T14:07:18.012Z,18.25
2019-05-02T14:09:58.052Z,18.45
2019-05-02T14:12:25.047Z,19.37
2019-05-02T14:14:56.642Z,18.27
2019-05-02T14:17:28.440Z,19.27
2019-05-02T14:20:08.612Z,17.50
2019-05-02T14:22:33.272Z,16.87
2019-05-02T14:25:04.483Z,13.28
2019-05-02T14:27:35.845Z,16.77
2019-05-02T14:30:09.254Z,21.10
2019-05-02T14:32:42.421Z,17.85
2019-05-02T14:35:18.766Z,18.57
2019-05-02T14:37:48.932Z,17.75
2019-05-02T14:40:22.403Z,15.35
2019-05-02T14:42:57.777Z,12.50
2019-05-02T14:45:30.995Z,16.17
2019-05-02T14:48:17.764Z,11.80
2019-05-02T14:50:36.561Z,11.88
2019-05-02T14:53:06.070Z,13.75
2019-05-02T14:55:39.391Z,13.35
2019-05-02T14:58:12.365Z,15.32
2019-05-02T15:00:47.885Z,13.85
2019-05-02T15:03:19.068Z,12.40
2019-05-02T15:05:52.667Z,11.28
2019-05-02T15:08:23.795Z,11.93
2019-05-02T15:10:56.646Z,11.70
2019-05-02T15:13:27.068Z,16.97
2019-05-02T15:15:58.885Z,10.70
2019-05-02T15:18:32.126Z,10.20
2019-05-02T15:21:11.074Z,12.90
2019-05-02T15:23:36.704Z,12.03
2019-05-02T15:26:07.695Z,11.10
2019-05-02T15:28:39.578Z,11.63
2019-05-02T15:36:15.825Z,12.70
2019-05-02T15:38:47.555Z,10.40
2019-05-02T15:41:19.197Z,9.83
2019-05-02T15:43:52.371Z,11.75
2019-05-02T15:46:28.158Z,13.22
2019-05-02T15:49:01.688Z,11.93
2019-05-02T15:51:30.263Z,10.13
2019-05-02T15:54:08.212Z,10.45
2019-05-02T15:56:37.306Z,13.13
2019-05-02T15:59:09.322Z,12.73
2019-05-02T16:04:17.239Z,10.43
2019-05-02T16:06:48.783Z,13.05
2019-05-02T16:09:21.619Z,12.73
2019-05-02T16:11:56.742Z,13.22
2019-05-02T16:14:26.999Z,17.25
2019-05-02T16:17:01.055Z,11.33
2019-05-02T16:19:33.313Z,10.43
2019-05-02T16:22:08.000Z,11.63
2019-05-02T16:24:39.530Z,12.82
2019-05-02T16:27:11.699Z,12.65
2019-05-02T16:29:43.171Z,17.73
2019-05-02T16:32:16.156Z,59.98
2019-05-02T16:34:48.999Z,19.00
2019-05-02T16:37:22.527Z,24.52
2019-05-02T16:39:53.938Z,19.85
2019-05-02T16:42:25.835Z,20.08
2019-05-02T16:44:57.056Z,14.30
2019-05-02T16:47:28.943Z,14.18
2019-05-02T16:50:02.283Z,12.45
2019-05-02T16:52:33.282Z,15.35
2019-05-02T16:55:05.629Z,36.35
2019-05-02T16:57:38.098Z,33.73
2019-05-02T17:00:12.935Z,41.30
2019-05-02T17:02:46.373Z,25.25
2019-05-02T17:05:17.843Z,25.23
2019-05-02T17:10:22.607Z,20.27
2019-05-02T17:12:57.694Z,13.55
2019-05-02T17:15:31.144Z,20.88
2019-05-02T17:18:04.896Z,12.85
2019-05-02T17:20:34.374Z,13.45
2019-05-02T17:23:07.507Z,12.43
2019-05-02T17:25:41.532Z,13.15
2019-05-02T17:28:13.290Z,14.68
2019-05-02T17:30:44.617Z,15.38
2019-05-02T17:33:16.506Z,11.97
2019-05-02T17:38:27.328Z,14.75
2019-05-02T17:40:54.465Z,9.93
2019-05-02T17:43:26.156Z,15.68
2019-05-02T17:45:57.433Z,14.80
2019-05-02T17:48:29.427Z,11.78
2019-05-02T17:51:02.696Z,12.60
2019-05-02T17:53:41.634Z,11.22
2019-05-02T17:56:11.988Z,14.25
2019-05-02T17:58:47.388Z,11.35
2019-05-02T18:01:14.367Z,9.35
2019-05-02T18:03:45.559Z,11.20
2019-05-02T18:06:17.336Z,12.13
2019-05-02T18:08:51.661Z,10.00
2019-05-02T18:11:22.987Z,12.88
2019-05-02T18:13:54.674Z,12.18
2019-05-02T18:16:26.416Z,9.15
2019-05-02T18:18:58.195Z,10.38
2019-05-02T18:21:29.366Z,10.35
2019-05-02T18:24:04.433Z,12.17
2019-05-02T18:26:33.426Z,11.93
2019-05-02T18:29:06.756Z,10.23
2019-05-02T18:31:40.067Z,9.95
2019-05-02T18:34:14.329Z,13.98
2019-05-02T18:36:43.963Z,10.00
2019-05-02T18:39:14.960Z,12.37
2019-05-02T18:41:46.403Z,11.55
2019-05-02T18:44:18.719Z,11.40
2019-05-02T18:46:51.512Z,9.63
2019-05-02T18:49:23.460Z,12.37
2019-05-02T18:54:27.014Z,12.50
2019-05-02T18:56:58.762Z,13.10
2019-05-02T18:59:31.913Z,10.25
2019-05-02T19:02:03.323Z,10.28
2019-05-02T19:04:38.080Z,10.90
2019-05-02T19:07:12.146Z,10.30
2019-05-02T19:09:49.082Z,12.58
2019-05-02T19:12:19.355Z,13.93
2019-05-02T19:14:45.855Z,11.48
2019-05-02T19:17:16.847Z,11.08
2019-05-02T19:19:47.803Z,10.75
2019-05-02T19:22:18.680Z,11.35
2019-05-02T19:24:49.509Z,13.50
2019-05-02T19:27:25.575Z,12.25
2019-05-02T19:29:54.812Z,13.75
2019-05-02T19:32:28.401Z,13.22
2019-05-02T19:35:03.195Z,13.08
2019-05-02T19:40:02.726Z,14.35
2019-05-02T19:42:33.538Z,14.40
2019-05-02T19:45:11.401Z,16.45
2019-05-02T19:47:37.310Z,16.82
2019-05-02T19:50:12.387Z,12.33
2019-05-02T19:52:43.698Z,12.15
2019-05-02T19:55:20.084Z,14.80
2019-05-02T19:57:46.839Z,10.85
2019-05-02T20:00:18.680Z,10.95
2019-05-02T20:02:52.161Z,22.50
2019-05-02T20:05:25.465Z,11.55
2019-05-02T20:07:56.551Z,14.00
2019-05-02T20:10:27.722Z,13.58
2019-05-02T20:12:59.544Z,16.23
2019-05-02T20:15:32.777Z,15.53
2019-05-02T20:18:04.640Z,10.78
2019-05-02T20:20:40.487Z,14.00
2019-05-02T20:23:16.196Z,13.48
2019-05-02T20:25:44.641Z,14.50
2019-05-02T20:28:15.600Z,15.40
2019-05-02T20:30:46.778Z,14.23
2019-05-02T20:33:18.231Z,12.95
2019-05-02T20:35:49.984Z,13.30
2019-05-02T20:38:21.895Z,12.40
2019-05-02T20:43:23.946Z,12.13
2019-05-02T20:45:55.488Z,13.15
2019-05-02T20:48:26.330Z,14.05
2019-05-02T20:50:57.293Z,12.37
2019-05-02T20:53:31.361Z,14.25
2019-05-02T20:56:01.818Z,12.00
2019-05-02T20:58:33.764Z,12.75
2019-05-02T21:01:08.782Z,10.98
2019-05-02T21:03:38.562Z,14.00
2019-05-02T21:06:12.220Z,15.63
2019-05-02T21:08:45.055Z,13.50
2019-05-02T21:11:16.927Z,13.22
2019-05-02T21:13:48.243Z,15.50
2019-05-02T21:16:21.714Z,11.77
2019-05-02T21:18:52.458Z,12.43
2019-05-02T21:21:25.662Z,13.68
2019-05-02T21:23:56.591Z,14.83
2019-05-02T21:26:28.244Z,14.00
2019-05-02T21:28:59.898Z,14.05
2019-05-02T21:31:31.918Z,15.25
2019-05-02T21:36:33.848Z,10.78
2019-05-02T21:39:06.307Z,11.00
2019-05-02T21:41:37.250Z,14.68
2019-05-02T21:44:09.024Z,11.48
2019-05-02T21:46:42.274Z,13.38
2019-05-02T21:49:14.149Z,11.68
2019-05-02T21:51:46.675Z,11.20
2019-05-02T21:54:19.199Z,11.12
2019-05-02T21:56:52.254Z,13.55
2019-05-02T21:59:23.795Z,9.88
2019-05-02T22:01:57.698Z,13.32
2019-05-02T22:04:31.644Z,13.60
2019-05-02T22:07:02.535Z,14.55
2019-05-02T22:09:33.690Z,12.07
2019-05-02T22:12:04.552Z,11.68
2019-05-02T22:14:36.193Z,16.90
2019-05-02T22:17:08.058Z,12.65
2019-05-02T22:19:41.593Z,13.08
2019-05-02T22:22:12.788Z,13.00
2019-05-02T22:24:44.545Z,16.82
2019-05-02T22:27:15.418Z,12.45
2019-05-02T22:29:46.268Z,13.25
2019-05-02T22:32:17.553Z,11.18
2019-05-02T22:34:49.228Z,16.07
2019-05-02T22:37:22.136Z,14.35
2019-05-02T22:39:54.227Z,11.12
2019-05-02T22:42:25.067Z,16.52
2019-05-02T22:44:56.423Z,17.05
2019-05-02T22:47:27.278Z,15.50
2019-05-02T22:49:58.753Z,14.65
2019-05-02T22:52:32.165Z,18.00
2019-05-02T22:55:03.122Z,14.43
2019-05-02T22:57:34.656Z,18.60
2019-05-02T23:00:07.283Z,20.62
2019-05-02T23:02:38.879Z,13.75
2019-05-02T23:05:12.297Z,20.08
2019-05-02T23:07:43.338Z,15.90
2019-05-02T23:10:14.982Z,15.63
2019-05-02T23:12:46.456Z,24.32
2019-05-02T23:15:18.206Z,16.40
2019-05-02T23:17:52.173Z,17.85
2019-05-02T23:20:24.395Z,15.55
2019-05-02T23:22:55.324Z,16.42
2019-05-02T23:25:28.154Z,16.65
2019-05-02T23:28:02.466Z,18.15
2019-05-02T23:30:34.074Z,20.20
2019-05-02T23:33:05.913Z,16.75
2019-05-02T23:35:37.343Z,17.92
2019-05-02T23:38:08.738Z,18.55
2019-05-02T23:40:41.992Z,16.35
2019-05-02T23:43:13.185Z,17.70
2019-05-02T23:45:44.233Z,16.57
2019-05-02T23:48:15.691Z,15.53
2019-05-02T23:50:46.738Z,21.52
2019-05-02T23:53:18.282Z,16.05
2019-05-02T23:55:49.530Z,14.78
2019-05-02T23:58:22.653Z,16.42
